Time;durP1;ratioP1;P1;durP2;ratioP2;P2;SDS_P1;SDS_P2;PMS_P1;PMS_P2;Temp;Humidity;BMP_temperature;BMP_pressure;BME280_temperature;BME280_humidity;BME280_pressure;Samples;Min_cycle;Max_cycle;Signal;HPM_P1;HPM_P2
2024/01/03 00:01:38;;;;;;;2.17;0.77;;;11.60;99.90;;;11.72;100.00;98541.00;5240143;28;20044;-49
2024/01/03 00:04:16;;;;;;;0.88;0.30;;;11.60;99.90;;;11.73;100.00;98538.38;5236387;28;20063;-49
2024/01/03 00:06:49;;;;;;;1.42;0.35;;;11.70;99.90;;;11.72;100.00;98534.03;5240360;28;20079;-49
2024/01/03 00:09:21;;;;;;;2.80;0.60;;;11.70;99.90;;;11.74;100.00;98542.75;5254103;28;20048;-51
2024/01/03 00:11:55;;;;;;;3.92;0.60;;;11.70;99.90;;;11.72;100.00;98517.53;5236831;28;20067;-49
2024/01/03 00:14:32;;;;;;;0.47;0.30;;;11.70;99.90;;;11.73;100.00;98532.28;5243350;28;20049;-52
2024/01/03 00:17:06;;;;;;;2.72;0.40;;;11.70;99.90;;;11.71;100.00;98541.88;5255767;28;20044;-51
2024/01/03 00:19:39;;;;;;;1.63;0.55;;;11.70;99.90;;;11.76;100.00;98532.28;5254671;28;20099;-49
2024/01/03 00:22:15;;;;;;;2.58;0.70;;;11.70;99.90;;;11.76;100.00;98547.94;5243399;28;20107;-48
2024/01/03 00:24:48;;;;;;;4.10;0.45;;;11.70;99.90;;;11.72;100.00;98527.97;5259320;28;20045;-50
2024/01/03 00:27:22;;;;;;;3.75;0.55;;;11.70;99.90;;;11.71;100.00;98536.66;5213408;28;20041;-49
2024/01/03 00:30:00;;;;;;;0.43;0.40;;;11.70;99.90;;;11.71;100.00;98541.88;5237640;28;20044;-48
2024/01/03 00:32:33;;;;;;;1.25;0.45;;;11.70;99.90;;;11.64;100.00;98552.34;5248128;28;20071;-49
2024/01/03 00:35:08;;;;;;;4.65;0.60;;;11.60;99.90;;;11.60;100.00;98554.97;5242520;28;20044;-49
2024/01/03 00:37:43;;;;;;;;;;;11.60;99.90;;;11.60;100.00;98550.63;5241067;28;20052;-47
2024/01/03 00:40:57;;;;;;;4.85;0.70;;;11.60;99.90;;;11.56;100.00;98548.91;5230997;28;20288;-48
2024/01/03 00:43:31;;;;;;;0.50;0.50;;;11.50;99.90;;;11.52;100.00;98552.41;5225645;28;20049;-51
2024/01/03 00:46:05;;;;;;;3.63;0.55;;;11.50;99.90;;;11.54;100.00;98562.84;5260696;28;20047;-49
2024/01/03 00:48:37;;;;;;;3.35;0.90;;;11.50;99.90;;;11.54;100.00;98568.03;5251760;28;20049;-48
2024/01/03 00:51:11;;;;;;;2.60;0.43;;;11.50;99.90;;;11.50;100.00;98558.53;5246204;28;20044;-48
2024/01/03 00:53:43;;;;;;;2.15;0.43;;;11.50;99.90;;;11.47;100.00;98558.53;5259993;28;20051;-49
2024/01/03 00:56:16;;;;;;;1.08;0.40;;;11.40;99.90;;;11.50;100.00;98580.25;5244842;28;20044;-52
2024/01/03 00:58:50;;;;;;;1.27;0.35;;;11.40;99.90;;;11.52;100.00;98575.03;5234746;28;20064;-51
2024/01/03 01:01:23;;;;;;;0.50;0.45;;;11.50;99.90;;;11.51;100.00;98565.47;5244050;28;20383;-50
2024/01/03 01:03:55;;;;;;;1.40;0.45;;;11.40;99.90;;;11.48;100.00;98608.09;5234764;28;20403;-49
2024/01/03 01:06:27;;;;;;;2.00;0.52;;;11.50;99.90;;;11.50;100.00;98595.03;5242419;28;20036;-49
2024/01/03 01:09:03;;;;;;;0.85;0.40;;;11.40;99.90;;;11.50;100.00;98585.47;5240081;28;20077;-48
2024/01/03 01:11:36;;;;;;;2.00;0.70;;;11.40;99.90;;;11.46;100.00;98586.34;5251401;28;20052;-49
2024/01/03 01:14:10;;;;;;;0.68;0.30;;;11.40;99.90;;;11.47;100.00;98589.81;5253122;28;20099;-52
2024/01/03 01:16:42;;;;;;;3.80;0.57;;;11.40;99.90;;;11.52;100.00;98615.03;5239665;28;20538;-49
2024/01/03 01:19:15;;;;;;;2.15;0.40;;;11.40;99.90;;;11.55;100.00;98593.28;5231481;28;20049;-50
2024/01/03 01:21:47;;;;;;;1.23;0.50;;;11.50;99.90;;;11.54;100.00;98588.91;5239794;28;20045;-49
2024/01/03 01:24:20;;;;;;;1.17;0.43;;;11.50;99.90;;;11.52;100.00;98591.53;5239311;28;20060;-49
2024/01/03 01:26:52;;;;;;;0.60;0.60;;;11.50;99.90;;;11.53;100.00;98605.44;5257877;28;20048;-50
2024/01/03 01:29:26;;;;;;;1.58;0.82;;;11.50;99.90;;;11.47;100.00;98603.72;5246695;28;20055;-49
2024/01/03 01:31:59;;;;;;;0.52;0.38;;;11.40;99.90;;;11.43;100.00;98619.41;5250408;28;20148;-50
2024/01/03 01:34:31;;;;;;;0.65;0.60;;;11.40;99.90;;;11.43;100.00;98620.28;5239384;28;20446;-50
2024/01/03 01:37:04;;;;;;;1.63;0.50;;;11.40;99.90;;;11.39;100.00;98621.16;5259555;28;20048;-49
2024/01/03 01:39:36;;;;;;;3.92;0.40;;;11.40;99.90;;;11.38;100.00;98630.72;5251593;28;20049;-49
2024/01/03 01:42:09;;;;;;;0.82;0.47;;;11.40;99.90;;;11.40;100.00;98628.97;5237867;28;20053;-50
2024/01/03 01:44:42;;;;;;;1.48;0.20;;;11.40;99.90;;;11.38;100.00;98635.94;5237983;28;20064;-48
2024/01/03 01:47:15;;;;;;;1.75;0.70;;;11.30;99.90;;;11.37;100.00;98630.72;5238802;28;20430;-50
2024/01/03 01:49:48;;;;;;;2.72;0.55;;;11.30;99.90;;;11.34;100.00;98628.13;5241192;28;20051;-48
2024/01/03 01:52:22;;;;;;;0.38;0.20;;;11.30;99.90;;;11.32;100.00;98638.56;5243816;28;20045;-52
2024/01/03 01:54:54;;;;;;;0.32;0.32;;;11.30;99.90;;;11.34;100.00;98639.41;5256717;28;20052;-52
2024/01/03 01:57:29;;;;;;;2.38;0.30;;;11.30;99.90;;;11.29;100.00;98645.53;5251389;28;20037;-49
2024/01/03 02:00:05;;;;;;;1.80;0.28;;;11.20;99.90;;;11.24;100.00;98649.88;5240555;28;20143;-48
2024/01/03 02:02:45;;;;;;;3.40;0.40;;;11.20;99.90;;;11.23;100.00;98658.59;5235849;28;20140;-50
2024/01/03 02:05:18;;;;;;;0.40;0.40;;;11.20;99.90;;;11.21;100.00;98645.53;5240263;28;20612;-48
2024/01/03 02:07:51;;;;;;;0.35;0.20;;;11.20;99.90;;;11.19;100.00;98662.06;5231754;28;20041;-51
2024/01/03 02:10:23;;;;;;;0.32;0.20;;;11.10;99.90;;;11.12;100.00;98654.25;5230456;28;20560;-49
2024/01/03 02:12:55;;;;;;;1.48;0.22;;;11.10;99.90;;;11.11;100.00;98664.69;5249390;28;20048;-49
2024/01/03 02:15:29;;;;;;;0.73;0.20;;;11.10;99.90;;;11.01;100.00;98660.34;5237939;28;20052;-49
2024/01/03 02:18:02;;;;;;;0.32;0.32;;;11.00;99.90;;;10.98;100.00;98666.44;5237756;28;20044;-48
2024/01/03 02:20:36;;;;;;;0.30;0.30;;;11.00;99.90;;;10.99;100.00;98652.53;5232207;28;20526;-48
2024/01/03 02:23:10;;;;;;;2.30;0.57;;;11.00;99.90;;;10.94;100.00;98656.00;5242520;28;20497;-50
2024/01/03 02:25:42;;;;;;;1.70;0.40;;;10.90;99.90;;;10.87;100.00;98648.19;5252492;28;20102;-49
2024/01/03 02:28:16;;;;;;;0.20;0.20;;;10.90;99.90;;;10.86;100.00;98663.81;5235300;28;20052;-49
2024/01/03 02:30:48;;;;;;;4.90;0.40;;;10.80;99.90;;;10.84;100.00;98653.41;5238227;28;20047;-48
2024/01/03 02:33:20;;;;;;;3.97;0.40;;;10.80;99.90;;;10.81;100.00;98655.13;5232931;28;20048;-49
2024/01/03 02:35:53;;;;;;;1.95;0.55;;;10.80;99.90;;;10.79;100.00;98662.09;5256122;28;20040;-49
2024/01/03 02:38:27;;;;;;;0.63;0.40;;;10.80;99.90;;;10.80;100.00;98653.41;5233487;28;20050;-51
2024/01/03 02:40:59;;;;;;;0.30;0.30;;;10.70;99.90;;;10.80;100.00;98653.41;5230114;28;20055;-48
2024/01/03 02:43:31;;;;;;;0.40;0.30;;;10.80;99.90;;;10.81;100.00;98655.13;5235733;28;20044;-49
2024/01/03 02:46:04;;;;;;;2.63;0.40;;;10.80;99.90;;;10.80;100.00;98648.19;5238445;28;20075;-51
2024/01/03 02:48:40;;;;;;;3.22;0.50;;;10.80;99.90;;;10.83;100.00;98656.03;5237168;28;20041;-48
2024/01/03 02:51:19;;;;;;;0.47;0.30;;;10.80;99.90;;;10.91;100.00;98646.47;5236705;28;20130;-49
2024/01/03 02:53:52;;;;;;;2.65;0.40;;;10.80;99.90;;;10.89;100.00;98653.41;5240706;28;20044;-48
2024/01/03 02:56:25;;;;;;;2.45;0.60;;;10.80;99.90;;;10.90;100.00;98644.72;5231817;28;20395;-50
2024/01/03 02:58:57;;;;;;;2.88;0.60;;;10.80;99.90;;;10.94;100.00;98666.44;5253235;28;20526;-49
2024/01/03 03:01:30;;;;;;;1.25;0.55;;;10.90;99.90;;;11.00;100.00;98667.28;5260922;28;20044;-49
2024/01/03 03:04:02;;;;;;;5.32;0.68;;;10.90;99.90;;;11.04;100.00;98642.97;5250457;28;20056;-48
2024/01/03 03:06:34;;;;;;;0.25;0.25;;;10.90;99.90;;;11.06;100.00;98641.22;5238522;28;20025;-50
2024/01/03 03:09:08;;;;;;;1.55;0.30;;;11.00;99.90;;;11.03;100.00;98663.84;5235112;28;20056;-52
2024/01/03 03:11:41;;;;;;;1.08;0.30;;;11.00;99.90;;;11.00;100.00;98654.25;5239612;28;20603;-49
2024/01/03 03:14:14;;;;;;;1.58;0.40;;;11.00;99.90;;;11.06;100.00;98667.28;5246817;28;20067;-49
2024/01/03 03:16:46;;;;;;;1.30;0.30;;;11.00;99.90;;;11.05;100.00;98665.56;5256994;28;20044;-50
2024/01/03 03:19:19;;;;;;;2.28;0.50;;;11.00;99.90;;;11.00;100.00;98667.28;5231275;28;20536;-49
2024/01/03 03:21:51;;;;;;;0.38;0.38;;;11.00;99.90;;;10.95;100.00;98661.19;5258582;28;20048;-51
2024/01/03 03:24:25;;;;;;;5.15;0.55;;;10.90;99.90;;;10.89;100.00;98658.63;5244353;28;20045;-51
2024/01/03 03:26:57;;;;;;;3.15;0.35;;;10.90;99.90;;;10.81;100.00;98661.22;5260815;28;20067;-50
2024/01/03 03:29:30;;;;;;;2.13;0.40;;;10.80;99.90;;;10.75;100.00;98662.94;5241525;28;20072;-49
2024/01/03 03:32:02;;;;;;;1.77;0.55;;;10.80;99.90;;;10.67;100.00;98659.47;5255209;28;20445;-51
2024/01/03 03:34:35;;;;;;;1.63;0.52;;;10.70;99.90;;;10.64;100.00;98662.09;5241801;28;20056;-50
2024/01/03 03:37:07;;;;;;;1.10;0.30;;;10.70;99.90;;;10.60;100.00;98662.09;5235274;28;20045;-49
2024/01/03 03:39:41;;;;;;;2.63;0.47;;;10.60;99.90;;;10.57;100.00;98662.09;5254205;28;20052;-49
2024/01/03 03:42:13;;;;;;;1.60;0.52;;;10.60;99.90;;;10.52;100.00;98663.81;5233367;28;20060;-48
2024/01/03 03:44:46;;;;;;;1.45;0.28;;;10.60;99.90;;;10.50;100.00;98669.91;5240304;28;20057;-48
2024/01/03 03:47:19;;;;;;;0.60;0.30;;;10.50;99.90;;;10.44;100.00;98662.09;5235780;28;20136;-48
2024/01/03 03:49:51;;;;;;;0.20;0.20;;;10.50;99.90;;;10.42;100.00;98669.88;5262818;28;20060;-48
2024/01/03 03:52:23;;;;;;;1.75;0.40;;;10.40;99.90;;;10.42;100.00;98669.88;5241435;28;20052;-49
2024/01/03 03:54:57;;;;;;;1.77;0.60;;;10.40;99.90;;;10.46;100.00;98671.63;5254552;28;20388;-48
2024/01/03 03:57:30;;;;;;;1.67;0.52;;;10.40;99.90;;;10.45;100.00;98672.50;5246835;28;20036;-52
2024/01/03 04:00:04;;;;;;;1.05;0.32;;;10.50;99.90;;;10.48;100.00;98677.69;5237369;28;20049;-49
2024/01/03 04:02:45;;;;;;;2.92;0.40;;;10.50;99.90;;;10.51;100.00;98677.72;5244588;28;20067;-48
2024/01/03 04:05:18;;;;;;;6.38;0.70;;;10.50;99.90;;;10.53;100.00;98669.91;5258976;28;20541;-50
2024/01/03 04:07:50;;;;;;;0.75;0.50;;;10.50;99.90;;;10.57;100.00;98682.06;5245993;28;20406;-49
2024/01/03 04:10:24;;;;;;;4.22;0.85;;;10.50;99.90;;;10.58;100.00;98676.84;5243005;28;20059;-48
2024/01/03 04:12:56;;;;;;;1.98;0.70;;;10.60;99.90;;;10.65;100.00;98684.69;5260413;28;20410;-49
2024/01/03 04:15:29;;;;;;;1.05;0.55;;;10.60;99.90;;;10.67;100.00;98682.94;5229380;28;20493;-48
2024/01/03 04:18:04;;;;;;;4.35;0.50;;;10.60;99.90;;;10.72;100.00;98682.06;5255596;28;20131;-48
2024/01/03 04:20:36;;;;;;;;;;;10.70;99.90;;;10.73;100.00;98689.03;5244943;28;20051;-48
2024/01/03 04:23:08;;;;;;;1.70;0.35;;;10.70;99.90;;;10.73;100.00;98698.56;5242200;28;19920;-49
2024/01/03 04:25:46;;;;;;;5.30;0.57;;;10.70;99.90;;;10.74;100.00;98690.75;5244997;28;20066;-48
2024/01/03 04:28:18;;;;;;;2.03;0.75;;;10.70;99.90;;;10.73;100.00;98698.56;5237922;28;20411;-52
2024/01/03 04:30:50;;;;;;;1.42;0.30;;;10.70;99.90;;;10.78;100.00;98702.06;5244499;28;20533;-49
2024/01/03 04:33:23;;;;;;;4.10;0.80;;;10.80;99.90;;;10.75;100.00;98691.63;5236601;28;20125;-49
2024/01/03 04:35:56;;;;;;;1.25;0.43;;;10.70;99.90;;;10.75;100.00;98705.50;5241992;28;20051;-49
2024/01/03 04:38:28;;;;;;;2.65;0.75;;;10.70;99.90;;;10.75;100.00;98704.66;5241996;28;20049;-49
2024/01/03 04:41:02;;;;;;;3.88;0.47;;;10.70;99.90;;;10.73;100.00;98693.34;5243056;28;20052;-49
2024/01/03 04:43:34;;;;;;;2.92;0.40;;;10.70;99.90;;;10.73;100.00;98701.19;5233826;28;20143;-49
2024/01/03 04:46:07;;;;;;;3.67;0.55;;;10.70;99.90;;;10.74;100.00;98695.97;5236766;28;20407;-50
2024/01/03 04:48:40;;;;;;;4.25;0.50;;;10.70;99.90;;;10.82;100.00;98701.16;5238647;28;20049;-49
2024/01/03 04:51:13;;;;;;;2.53;0.30;;;10.70;99.90;;;10.83;100.00;98697.72;5236826;28;20057;-51
2024/01/03 04:53:45;;;;;;;2.22;0.55;;;10.80;99.90;;;10.83;100.00;98695.13;5243118;28;20431;-49
2024/01/03 04:56:19;;;;;;;2.22;0.45;;;10.80;99.90;;;10.80;100.00;98689.88;5235051;28;20053;-49
2024/01/03 04:58:51;;;;;;;5.20;0.60;;;10.80;99.90;;;10.81;100.00;98696.84;5244244;28;20055;-48
2024/01/03 05:01:24;;;;;;;1.33;0.50;;;10.80;99.90;;;10.78;100.00;98702.06;5237917;28;20060;-50
2024/01/03 05:03:56;;;;;;;0.73;0.35;;;10.70;99.90;;;10.77;100.00;98692.50;5237996;28;20044;-49
2024/01/03 05:06:28;;;;;;;2.65;0.68;;;10.70;99.90;;;10.77;100.00;98693.38;5258731;28;20059;-48
2024/01/03 05:09:01;;;;;;;2.78;0.45;;;10.70;99.90;;;10.78;100.00;98696.84;5257770;28;20045;-49
2024/01/03 05:11:35;;;;;;;0.35;0.35;;;10.70;99.90;;;10.81;100.00;98696.84;5238231;28;20044;-48
2024/01/03 05:14:07;;;;;;;0.43;0.30;;;10.80;99.90;;;10.81;100.00;98699.44;5231284;28;20049;-49
2024/01/03 05:16:41;;;;;;;1.45;0.43;;;10.80;99.90;;;10.81;100.00;98686.41;5250927;28;20051;-50
2024/01/03 05:19:13;;;;;;;2.53;0.57;;;10.80;99.90;;;10.82;100.00;98695.97;5256071;28;20178;-48
2024/01/03 05:21:45;;;;;;;3.35;0.60;;;10.80;99.90;;;10.83;100.00;98687.31;5243204;28;20069;-48
2024/01/03 05:24:19;;;;;;;1.95;0.40;;;10.80;99.90;;;10.86;100.00;98690.75;5244493;28;20040;-50
2024/01/03 05:26:53;;;;;;;2.78;0.40;;;10.80;99.90;;;10.87;100.00;98692.50;5235623;28;20106;-48
2024/01/03 05:29:26;;;;;;;2.17;0.47;;;10.80;99.90;;;10.87;100.00;98686.41;5241549;28;20048;-49
2024/01/03 05:31:58;;;;;;;0.50;0.20;;;10.80;99.90;;;10.88;100.00;98685.53;5252972;28;20044;-49
2024/01/03 05:34:31;;;;;;;1.05;0.32;;;10.80;99.90;;;10.86;100.00;98684.69;5247125;28;20522;-48
2024/01/03 05:37:03;;;;;;;2.10;0.40;;;10.80;99.90;;;10.86;100.00;98682.06;5247559;28;20132;-50
2024/01/03 05:39:36;;;;;;;0.98;0.30;;;10.80;99.90;;;10.84;100.00;98676.00;5239885;28;20054;-50
2024/01/03 05:42:10;;;;;;;0.60;0.32;;;10.80;99.90;;;10.85;100.00;98677.72;5254927;28;20045;-52
2024/01/03 05:44:42;;;;;;;3.92;0.60;;;10.80;99.90;;;10.84;100.00;98668.19;5241501;28;20045;-48
2024/01/03 05:47:15;;;;;;;2.55;0.40;;;10.80;99.90;;;10.87;100.00;98673.38;5235460;28;20059;-48
2024/01/03 05:49:47;;;;;;;0.70;0.43;;;10.80;99.90;;;10.84;100.00;98666.44;5243551;28;20045;-51
2024/01/03 05:52:19;;;;;;;0.80;0.40;;;10.80;99.90;;;10.84;100.00;98670.78;5235460;28;20136;-50
2024/01/03 05:54:52;;;;;;;6.78;0.73;;;10.80;99.90;;;10.84;100.00;98665.56;5241437;28;20045;-48
2024/01/03 05:57:25;;;;;;;1.60;0.57;;;10.80;99.90;;;10.85;100.00;98664.69;5237051;28;20060;-49
2024/01/03 05:59:58;;;;;;;2.50;0.55;;;10.80;99.90;;;10.81;100.00;98662.94;5248596;28;20041;-49
2024/01/03 06:02:31;;;;;;;1.30;0.57;;;10.80;99.90;;;10.80;100.00;98658.63;5238701;28;20037;-48
2024/01/03 06:05:03;;;;;;;3.92;0.80;;;10.80;99.90;;;10.77;100.00;98653.41;5245852;28;20052;-48
2024/01/03 06:07:35;;;;;;;2.80;0.98;;;10.70;99.90;;;10.78;100.00;98649.94;5236874;28;20047;-52
2024/01/03 06:10:09;;;;;;;2.75;0.88;;;10.70;99.90;;;10.78;100.00;98652.56;5235127;28;20045;-49
2024/01/03 06:12:42;;;;;;;3.40;0.77;;;10.80;99.90;;;10.78;100.00;98647.34;5239177;28;20048;-49
2024/01/03 06:15:15;;;;;;;2.63;0.60;;;10.70;99.90;;;10.75;100.00;98649.94;5254295;28;20060;-48
2024/01/03 06:17:47;;;;;;;3.13;0.70;;;10.70;99.90;;;10.74;100.00;98653.41;5238697;28;20505;-48
2024/01/03 06:20:20;;;;;;;1.50;0.45;;;10.70;99.90;;;10.77;100.00;98653.41;5238784;28;20051;-50
2024/01/03 06:22:52;;;;;;;3.15;0.70;;;10.70;99.90;;;10.77;100.00;98656.03;5257343;28;20055;-50
2024/01/03 06:25:25;;;;;;;3.08;0.70;;;10.70;99.90;;;10.73;100.00;98662.09;5242358;28;20048;-51
2024/01/03 06:27:58;;;;;;;3.92;0.70;;;10.70;99.90;;;10.74;100.00;98674.25;5232935;28;20048;-49
2024/01/03 06:30:31;;;;;;;1.65;0.70;;;10.70;99.90;;;10.78;100.00;98678.59;5242522;28;20044;-50
2024/01/03 06:33:05;;;;;;;7.00;0.50;;;10.70;99.90;;;10.78;100.00;98676.00;5253389;28;20078;-49
2024/01/03 06:35:38;;;;;;;0.50;0.40;;;10.80;99.90;;;10.80;100.00;98663.81;5254668;28;20048;-49
2024/01/03 06:38:10;;;;;;;2.13;0.45;;;10.70;99.90;;;10.81;100.00;98675.97;5238441;28;20037;-49
2024/01/03 06:40:43;;;;;;;5.60;0.80;;;10.70;99.90;;;10.83;100.00;98677.75;5240581;28;20051;-48
2024/01/03 06:43:17;;;;;;;3.85;0.65;;;10.80;99.90;;;10.86;100.00;98676.88;5240187;28;20052;-49
2024/01/03 06:45:49;;;;;;;4.85;0.80;;;10.80;99.90;;;10.87;100.00;98673.38;5243111;28;20045;-49
2024/01/03 06:48:21;;;;;;;5.20;0.88;;;10.80;99.90;;;10.88;100.00;98675.97;5231428;28;20049;-49
2024/01/03 06:50:54;;;;;;;3.83;0.85;;;10.80;99.90;;;10.90;100.00;98670.78;5251477;28;20048;-49
2024/01/03 06:53:26;;;;;;;4.63;0.80;;;10.80;99.90;;;10.91;100.00;98671.66;5231519;28;20057;-50
2024/01/03 06:55:58;;;;;;;3.30;0.98;;;10.80;99.90;;;10.93;100.00;98676.00;5242826;28;20398;-50
2024/01/03 06:58:32;;;;;;;4.72;0.93;;;10.90;99.90;;;10.93;100.00;98673.38;5233057;28;20036;-49
2024/01/03 07:01:05;;;;;;;2.88;0.82;;;10.90;99.90;;;10.94;100.00;98672.50;5241871;28;20087;-49
2024/01/03 07:03:37;;;;;;;4.00;0.73;;;10.90;99.90;;;10.94;100.00;98669.03;5244236;28;20048;-49
2024/01/03 07:06:10;;;;;;;5.25;0.75;;;10.90;99.90;;;10.98;100.00;98673.38;5258995;28;20044;-50
2024/01/03 07:08:42;;;;;;;3.35;0.70;;;10.90;99.90;;;11.02;100.00;98676.00;5244560;28;20529;-50
2024/01/03 07:11:14;;;;;;;8.38;0.98;;;10.90;99.90;;;11.03;100.00;98671.66;5242832;28;20052;-50
2024/01/03 07:13:48;;;;;;;2.30;0.65;;;11.00;99.90;;;11.02;100.00;98680.31;5253291;28;20511;-48
2024/01/03 07:16:20;;;;;;;2.83;0.52;;;10.90;99.90;;;11.01;100.00;98679.44;5247184;28;20048;-49
2024/01/03 07:18:53;;;;;;;2.70;0.50;;;10.90;99.90;;;10.99;100.00;98685.53;5249831;28;20048;-49
2024/01/03 07:21:26;;;;;;;0.98;0.50;;;10.90;99.90;;;11.00;100.00;98688.16;5255971;28;20045;-49
2024/01/03 07:23:59;;;;;;;2.25;0.57;;;11.00;99.90;;;11.06;100.00;98690.75;5248582;28;20579;-48
2024/01/03 07:26:31;;;;;;;1.00;0.30;;;11.00;99.90;;;11.08;100.00;98683.81;5243499;28;20052;-50
2024/01/03 07:29:05;;;;;;;2.85;0.75;;;11.00;99.90;;;11.08;100.00;98686.44;5241042;28;20041;-48
2024/01/03 07:31:37;;;;;;;6.45;0.88;;;11.00;99.90;;;11.07;100.00;98689.88;5234172;28;20491;-49
2024/01/03 07:34:10;;;;;;;2.65;0.60;;;11.00;99.90;;;11.06;100.00;98703.78;5236486;28;20057;-50
2024/01/03 07:36:43;;;;;;;2.75;0.63;;;11.00;99.90;;;11.06;100.00;98687.28;5260605;28;20048;-50
2024/01/03 07:39:15;;;;;;;1.15;0.43;;;11.00;99.90;;;11.04;100.00;98694.25;5238476;28;20056;-50
2024/01/03 07:41:48;;;;;;;3.92;0.70;;;11.00;99.90;;;11.02;100.00;98685.53;5243054;28;20036;-48
2024/01/03 07:44:21;;;;;;;3.05;0.95;;;11.00;99.90;;;10.95;100.00;98697.69;5231981;28;20466;-48
2024/01/03 07:46:54;;;;;;;3.58;0.63;;;10.90;99.90;;;10.93;100.00;98691.63;5240533;28;20051;-49
2024/01/03 07:49:26;;;;;;;2.28;0.60;;;10.90;99.90;;;10.91;100.00;98698.59;5254784;28;20055;-51
2024/01/03 07:51:59;;;;;;;3.92;0.50;;;10.90;99.90;;;10.86;100.00;98711.59;5259908;28;20353;-49
2024/01/03 07:54:31;;;;;;;1.67;0.50;;;10.80;99.90;;;10.84;100.00;98707.28;5259188;28;20072;-48
2024/01/03 07:57:04;;;;;;;4.38;0.70;;;10.80;99.90;;;10.78;100.00;98713.34;5261633;28;20049;-48
2024/01/03 07:59:40;;;;;;;3.58;0.63;;;10.80;99.90;;;10.74;100.00;98724.63;5243820;28;20097;-48
2024/01/03 08:02:13;;;;;;;5.35;0.68;;;10.70;99.90;;;10.72;100.00;98720.28;5257304;28;20041;-49
2024/01/03 08:04:45;;;;;;;1.23;0.50;;;10.70;99.90;;;10.75;100.00;98718.53;5241411;28;20033;-48
2024/01/03 08:07:18;;;;;;;2.47;0.60;;;10.70;99.90;;;10.78;100.00;98735.94;5241973;28;20549;-49
2024/01/03 08:09:50;;;;;;;1.30;0.32;;;10.70;99.90;;;10.81;100.00;98728.09;5241092;28;20507;-51
2024/01/03 08:12:23;;;;;;;2.42;0.65;;;10.70;99.90;;;10.80;100.00;98736.78;5250135;28;20478;-50
2024/01/03 08:14:57;;;;;;;4.30;0.90;;;10.70;99.90;;;10.76;100.00;98743.75;5255565;28;20045;-49
2024/01/03 08:17:29;;;;;;;6.00;0.68;;;10.70;99.90;;;10.77;100.00;98747.22;5242037;28;20045;-49
2024/01/03 08:20:02;;;;;;;1.05;0.40;;;10.70;99.90;;;10.81;100.00;98744.59;5244828;28;20044;-48
2024/01/03 08:22:34;;;;;;;1.77;0.68;;;10.80;99.90;;;10.82;100.00;98745.47;5254376;28;20040;-49
2024/01/03 08:25:10;;;;;;;0.65;0.50;;;10.70;99.90;;;10.85;100.00;98745.50;5230300;28;20041;-48
2024/01/03 08:27:42;;;;;;;3.30;0.40;;;10.80;99.90;;;10.85;100.00;98748.09;5242233;28;20039;-49
2024/01/03 08:30:16;;;;;;;3.20;0.68;;;10.80;99.90;;;10.86;100.00;98752.44;5248040;28;20866;-48
2024/01/03 08:32:49;;;;;;;1.83;0.40;;;10.80;99.90;;;10.88;100.00;98743.75;5233950;28;20060;-49
2024/01/03 08:35:21;;;;;;;2.08;0.60;;;10.80;99.90;;;11.01;100.00;98751.56;5243597;28;20037;-52
2024/01/03 08:37:53;;;;;;;1.73;0.40;;;10.90;99.90;;;11.07;100.00;98752.44;5255742;28;20051;-49
2024/01/03 08:40:26;;;;;;;2.63;0.45;;;11.00;99.90;;;11.05;100.00;98754.19;5238939;28;20045;-49
2024/01/03 08:43:00;;;;;;;5.00;0.70;;;11.00;99.90;;;11.06;100.00;98766.34;5240814;28;20036;-49
2024/01/03 08:45:34;;;;;;;2.25;0.60;;;11.00;99.90;;;11.07;100.00;98762.88;5239685;28;20051;-48
2024/01/03 08:48:08;;;;;;;2.78;0.30;;;11.00;99.90;;;11.07;100.00;98783.72;5242892;28;20036;-49
2024/01/03 08:50:41;;;;;;;1.55;0.45;;;11.00;99.90;;;11.07;100.00;98773.31;5250546;28;20048;-50
2024/01/03 08:53:13;;;;;;;1.35;0.50;;;11.00;99.90;;;11.08;100.00;98772.47;5245146;28;20603;-48
2024/01/03 08:55:46;;;;;;;5.03;0.80;;;11.00;99.90;;;11.03;100.00;98771.59;5229377;28;20049;-51
2024/01/03 08:58:19;;;;;;;4.55;0.50;;;11.00;99.90;;;10.96;100.00;98768.97;5258998;28;20050;-49
2024/01/03 09:00:53;;;;;;;0.65;0.43;;;11.00;99.90;;;10.89;100.00;98768.09;5228996;28;20040;-49
2024/01/03 09:03:25;;;;;;;4.13;0.50;;;10.90;99.90;;;10.82;100.00;98777.66;5240752;28;20084;-48
2024/01/03 09:05:58;;;;;;;2.67;0.55;;;10.90;99.90;;;10.78;100.00;98764.59;5239052;28;20045;-48
2024/01/03 09:08:30;;;;;;;6.20;0.70;;;10.80;99.90;;;10.70;100.00;98771.53;5245685;28;20493;-49
2024/01/03 09:11:11;;;;;;;6.10;0.77;;;10.80;99.90;;;10.64;100.00;98787.16;5255847;28;20141;-49
2024/01/03 09:13:43;;;;;;;4.07;0.50;;;10.70;99.90;;;10.60;100.00;98791.47;5239499;28;20048;-49
2024/01/03 09:16:19;;;;;;;1.02;0.60;;;10.60;99.90;;;10.57;100.00;98792.34;5247324;28;20045;-50
2024/01/03 09:18:52;;;;;;;2.60;0.80;;;10.60;99.90;;;10.54;100.00;98794.94;5256469;28;20045;-48
2024/01/03 09:21:24;;;;;;;2.17;0.43;;;10.60;99.90;;;10.53;100.00;98792.31;5238826;28;20068;-48
2024/01/03 09:23:56;;;;;;;1.00;0.40;;;10.60;99.90;;;10.51;100.00;98787.13;5247247;28;20052;-49
2024/01/03 09:26:29;;;;;;;2.20;0.80;;;10.50;99.90;;;10.51;100.00;98791.47;5241721;28;20315;-50
2024/01/03 09:29:01;;;;;;;5.30;0.57;;;10.50;99.90;;;10.53;100.00;98782.78;5232786;28;20410;-49
2024/01/03 09:31:42;;;;;;;5.85;0.85;;;10.50;99.90;;;10.56;100.00;98795.81;5246506;28;20041;-49
2024/01/03 09:34:14;;;;;;;1.42;0.43;;;10.50;99.90;;;10.60;100.00;98788.88;5248537;28;20515;-50
2024/01/03 09:36:46;;;;;;;4.55;1.02;;;10.50;99.90;;;10.67;100.00;98797.56;5257283;28;20044;-49
2024/01/03 09:39:19;;;;;;;3.70;0.70;;;10.60;99.90;;;10.72;100.00;98814.09;5241141;28;20049;-48
2024/01/03 09:41:51;;;;;;;2.58;0.38;;;10.60;99.90;;;10.83;100.00;98804.56;5240997;28;20136;-48
2024/01/03 09:44:24;;;;;;;2.38;0.40;;;10.70;99.90;;;10.97;100.00;98802.84;5253070;28;20057;-49
2024/01/03 09:46:58;;;;;;;3.83;0.68;;;10.80;99.90;;;11.05;100.00;98816.75;5243257;28;20148;-50
2024/01/03 09:49:30;;;;;;;3.22;0.60;;;10.90;99.90;;;11.11;100.00;98815.91;5255441;28;20410;-49
2024/01/03 09:52:04;;;;;;;1.45;0.50;;;10.90;99.90;;;11.13;100.00;98816.78;5242531;28;20044;-49
2024/01/03 09:54:38;;;;;;;3.55;0.60;;;11.00;99.90;;;11.14;100.00;98811.53;5240030;28;20076;-49
2024/01/03 09:57:11;;;;;;;2.88;0.63;;;11.00;99.90;;;11.24;100.00;98811.56;5233008;28;20687;-49
2024/01/03 09:59:44;;;;;;;3.30;0.75;;;11.10;99.90;;;11.37;100.00;98813.31;5224882;28;20041;-48
2024/01/03 10:02:17;;;;;;;3.03;0.70;;;11.20;99.90;;;11.51;100.00;98805.47;5245937;28;20051;-48
2024/01/03 10:04:50;;;;;;;3.30;0.88;;;11.30;99.90;;;11.61;100.00;98802.88;5223454;28;20048;-49
2024/01/03 10:07:32;;;;;;;1.48;0.75;;;11.40;99.90;;;11.69;100.00;98795.91;5247060;28;20052;-48
2024/01/03 10:10:06;;;;;;;3.53;0.90;;;11.50;99.90;;;11.76;100.00;98806.34;5235355;28;20102;-48
2024/01/03 10:12:39;;;;;;;2.00;0.75;;;11.60;99.90;;;11.79;100.00;98803.69;5242232;28;20053;-51
2024/01/03 10:15:16;;;;;;;4.15;0.77;;;11.60;99.90;;;11.79;100.00;98812.41;5237893;28;20044;-49
2024/01/03 10:17:50;;;;;;;5.32;0.68;;;11.70;99.90;;;11.81;100.00;98791.56;5233554;28;20221;-48
2024/01/03 10:20:25;;;;;;;5.47;0.57;;;11.70;99.90;;;11.85;100.00;98812.44;5229029;28;20056;-53
2024/01/03 10:23:06;;;;;;;3.28;0.73;;;11.70;99.90;;;12.10;100.00;98808.03;5250262;28;20410;-50
2024/01/03 10:25:39;;;;;;;3.38;0.88;;;11.80;99.90;;;12.32;100.00;98824.47;5256999;28;20059;-48
2024/01/03 10:28:16;;;;;;;2.33;0.65;;;12.00;99.90;;;12.48;100.00;98820.94;5239181;28;20426;-52
2024/01/03 10:30:53;;;;;;;3.60;0.77;;;12.20;99.90;;;12.62;100.00;98815.66;5237747;28;20052;-50
2024/01/03 10:33:27;;;;;;;2.70;0.50;;;12.40;99.90;;;12.66;100.00;98825.22;5242212;28;20078;-49
2024/01/03 10:35:59;;;;;;;9.15;1.15;;;12.40;99.90;;;12.60;100.00;98817.41;5239329;28;20055;-49
2024/01/03 10:38:33;;;;;;;2.60;0.60;;;12.40;99.90;;;12.51;100.00;98820.06;5242691;28;20223;-49